createdAt,value
2018-06-27T00:03:59.568Z,15.20
2018-06-27T00:09:02.623Z,15.10
2018-06-27T00:14:05.732Z,15.10
2018-06-27T00:19:08.775Z,15.00
2018-06-27T00:24:11.875Z,15.00
2018-06-27T00:30:17.935Z,14.90
2018-06-27T00:35:21.016Z,14.90
2018-06-27T00:40:24.075Z,14.80
2018-06-27T00:45:27.148Z,14.80
2018-06-27T00:50:30.256Z,14.70
2018-06-27T00:55:33.348Z,14.70
2018-06-27T01:00:36.412Z,14.70
2018-06-27T01:05:39.420Z,14.60
2018-06-27T01:10:42.521Z,14.60
2018-06-27T01:15:45.545Z,14.50
2018-06-27T01:20:48.625Z,14.50
2018-06-27T01:25:51.677Z,14.40
2018-06-27T01:30:54.755Z,14.40
2018-06-27T01:35:57.804Z,14.30
2018-06-27T01:41:00.864Z,14.30
2018-06-27T01:46:04.076Z,14.40
2018-06-27T01:51:07.196Z,14.40
2018-06-27T01:56:11.273Z,14.30
2018-06-27T02:01:14.312Z,14.20
2018-06-27T02:06:17.542Z,14.20
2018-06-27T02:11:20.637Z,14.20
2018-06-27T02:16:23.794Z,14.20
2018-06-27T02:21:26.912Z,14.20
2018-06-27T02:26:29.971Z,14.20
2018-06-27T02:31:33.093Z,14.10
2018-06-27T02:36:36.146Z,14.10
2018-06-27T02:41:40.432Z,14.10
2018-06-27T02:46:43.520Z,14.10
2018-06-27T02:51:46.589Z,14.00
2018-06-27T02:56:49.717Z,14.10
2018-06-27T03:01:52.917Z,14.00
2018-06-27T03:06:55.968Z,14.00
2018-06-27T03:11:59.039Z,14.00
2018-06-27T03:17:02.119Z,13.90
2018-06-27T03:22:05.141Z,13.90
2018-06-27T03:27:08.205Z,13.90
2018-06-27T03:32:11.248Z,13.90
2018-06-27T03:37:14.304Z,14.00
2018-06-27T03:42:17.360Z,14.00
2018-06-27T03:47:20.445Z,14.10
2018-06-27T03:52:23.552Z,14.10
2018-06-27T03:57:26.763Z,14.00
2018-06-27T04:02:29.847Z,14.10
2018-06-27T04:07:32.892Z,14.30
2018-06-27T04:12:35.999Z,14.30
2018-06-27T04:17:39.084Z,14.40
2018-06-27T04:22:42.136Z,14.40
2018-06-27T04:27:45.213Z,14.50
2018-06-27T04:32:48.366Z,14.60
2018-06-27T04:37:51.442Z,14.70
2018-06-27T04:42:54.503Z,14.80
2018-06-27T04:47:57.585Z,14.80
2018-06-27T04:53:00.621Z,14.90
2018-06-27T04:58:03.704Z,15.00
2018-06-27T05:03:07.216Z,15.10
2018-06-27T05:08:10.407Z,15.30
2018-06-27T05:13:13.440Z,15.40
2018-06-27T05:18:16.516Z,15.60
2018-06-27T05:23:19.771Z,15.70
2018-06-27T05:28:22.904Z,15.90
2018-06-27T05:33:26.205Z,16.00
2018-06-27T05:38:29.260Z,16.20
2018-06-27T05:43:32.348Z,16.40
2018-06-27T05:48:35.390Z,16.80
2018-06-27T05:53:38.464Z,17.00
2018-06-27T05:58:41.526Z,17.50
2018-06-27T06:03:45.584Z,18.40
2018-06-27T06:08:49.273Z,19.60
2018-06-27T06:13:52.351Z,20.50
2018-06-27T06:18:55.438Z,21.40
2018-06-27T06:23:58.497Z,21.70
2018-06-27T06:29:01.554Z,22.20
2018-06-27T06:34:04.712Z,22.80
2018-06-27T06:39:08.468Z,22.90
2018-06-27T06:44:11.553Z,23.60
2018-06-27T06:49:14.628Z,23.90
2018-06-27T06:54:17.668Z,23.70
2018-06-27T06:59:21.223Z,23.80
2018-06-27T07:04:24.252Z,24.50
2018-06-27T07:09:27.455Z,24.80
2018-06-27T07:14:30.529Z,25.10
2018-06-27T07:19:33.594Z,25.50
2018-06-27T07:24:36.637Z,25.70
2018-06-27T07:29:39.678Z,26.00
2018-06-27T07:34:42.742Z,25.80
2018-06-27T07:39:46.028Z,25.20
2018-06-27T07:44:49.465Z,25.60
2018-06-27T07:49:53.581Z,26.10
2018-06-27T07:54:56.703Z,26.30
2018-06-27T07:59:59.818Z,25.90
2018-06-27T08:05:02.976Z,27.40
2018-06-27T08:10:06.029Z,26.50
2018-06-27T08:15:09.119Z,24.80
2018-06-27T08:20:12.167Z,24.80
2018-06-27T08:25:15.184Z,25.20
2018-06-27T08:30:18.329Z,25.10
2018-06-27T08:35:21.428Z,26.40
2018-06-27T08:40:24.440Z,26.20
2018-06-27T08:45:27.547Z,26.00
2018-06-27T08:50:30.635Z,26.10
2018-06-27T08:55:33.739Z,25.50
2018-06-27T09:00:36.737Z,25.40
2018-06-27T09:05:39.736Z,26.20
2018-06-27T09:10:42.748Z,25.90
2018-06-27T09:15:45.841Z,24.90
2018-06-27T09:20:48.987Z,24.10
2018-06-27T09:25:52.074Z,23.30
2018-06-27T09:30:55.384Z,22.90
2018-06-27T09:35:58.447Z,22.90
2018-06-27T09:41:01.503Z,22.90
2018-06-27T09:46:04.525Z,22.70
2018-06-27T09:51:07.601Z,22.60
2018-06-27T09:56:10.658Z,22.20
2018-06-27T10:01:13.705Z,22.20
2018-06-27T10:06:16.982Z,22.30
2018-06-27T10:11:20.069Z,22.20
2018-06-27T10:16:23.122Z,22.30
2018-06-27T10:21:26.228Z,21.90
2018-06-27T10:26:29.325Z,22.20
2018-06-27T10:31:32.480Z,22.80
2018-06-27T10:36:35.540Z,22.30
2018-06-27T10:41:38.968Z,21.90
2018-06-27T10:46:42.087Z,22.40
2018-06-27T10:51:45.126Z,22.90
2018-06-27T10:56:48.229Z,23.30
2018-06-27T11:01:51.282Z,23.50
2018-06-27T11:06:54.398Z,23.60
2018-06-27T11:11:57.528Z,23.40
2018-06-27T11:17:00.561Z,23.20
2018-06-27T11:22:03.586Z,22.80
2018-06-27T11:27:06.616Z,23.00
2018-06-27T11:32:09.767Z,23.30
2018-06-27T11:37:12.833Z,23.60
2018-06-27T11:42:15.884Z,23.50
2018-06-27T11:47:18.941Z,23.70
2018-06-27T11:52:21.936Z,23.60
2018-06-27T11:57:24.948Z,23.70
2018-06-27T12:02:27.997Z,23.80
2018-06-27T12:07:31.059Z,24.10
2018-06-27T12:12:34.084Z,23.70
2018-06-27T12:17:37.129Z,23.10
2018-06-27T12:22:40.220Z,23.30
2018-06-27T12:27:43.244Z,23.40
2018-06-27T12:32:46.297Z,23.50
2018-06-27T12:37:49.545Z,23.80
2018-06-27T12:42:52.656Z,24.30
2018-06-27T12:47:55.701Z,24.10
2018-06-27T12:52:58.848Z,24.30
2018-06-27T12:58:02.101Z,24.30
2018-06-27T13:03:05.188Z,23.90
2018-06-27T13:08:08.249Z,23.70
2018-06-27T13:13:11.276Z,23.70
2018-06-27T13:18:14.525Z,23.80
2018-06-27T13:23:17.633Z,23.90
2018-06-27T13:28:20.652Z,24.20
2018-06-27T13:33:23.718Z,24.40
2018-06-27T13:38:26.770Z,24.50
2018-06-27T13:43:29.824Z,24.30
2018-06-27T13:48:32.893Z,24.30
2018-06-27T13:53:36.009Z,24.30
2018-06-27T13:58:39.107Z,24.80
2018-06-27T14:03:42.128Z,24.80
2018-06-27T14:08:45.216Z,25.00
2018-06-27T14:13:48.236Z,24.60
2018-06-27T14:18:51.386Z,24.40
2018-06-27T14:23:54.579Z,24.20
2018-06-27T14:28:57.636Z,24.30
2018-06-27T14:34:00.690Z,24.20
2018-06-27T14:39:05.611Z,24.40
2018-06-27T14:44:08.964Z,24.30
2018-06-27T14:49:12.077Z,24.00
2018-06-27T14:54:15.042Z,23.70
2018-06-27T14:59:18.106Z,23.50
2018-06-27T15:04:21.132Z,23.30
2018-06-27T15:09:24.190Z,23.40
2018-06-27T15:14:27.239Z,23.40
2018-06-27T15:19:30.360Z,23.40
2018-06-27T15:24:33.453Z,23.60
2018-06-27T15:29:36.573Z,23.60
2018-06-27T15:34:39.577Z,23.60
2018-06-27T15:39:43.705Z,23.80
2018-06-27T15:44:46.852Z,23.90
2018-06-27T15:49:49.908Z,23.80
2018-06-27T15:54:53.009Z,23.70
2018-06-27T16:04:59.325Z,23.90
2018-06-27T16:15:05.244Z,23.80
2018-06-27T16:25:11.176Z,24.20
2018-06-27T16:30:14.301Z,24.30
2018-06-27T16:35:17.470Z,24.30
2018-06-27T16:40:20.944Z,24.40
2018-06-27T16:45:24.023Z,24.30
2018-06-27T16:50:27.253Z,23.90
2018-06-27T16:55:30.349Z,23.70
2018-06-27T17:00:33.370Z,23.60
2018-06-27T17:05:36.410Z,23.50
2018-06-27T17:10:39.559Z,23.40
2018-06-27T17:15:42.968Z,23.40
2018-06-27T17:20:45.977Z,23.30
2018-06-27T17:25:49.106Z,23.30
2018-06-27T17:30:52.184Z,23.20
2018-06-27T17:35:57.037Z,23.10
2018-06-27T17:41:00.367Z,22.90
2018-06-27T17:46:03.417Z,22.90
2018-06-27T17:51:06.610Z,22.80
2018-06-27T17:56:09.640Z,22.70
2018-06-27T18:01:12.721Z,22.70
2018-06-27T18:06:15.833Z,22.60
2018-06-27T18:11:18.881Z,22.60
2018-06-27T18:16:21.944Z,22.60
2018-06-27T18:21:25.009Z,22.60
2018-06-27T18:26:28.178Z,22.60
2018-06-27T18:31:31.241Z,22.50
2018-06-27T18:36:34.348Z,22.50
2018-06-27T18:46:40.241Z,22.40
2018-06-27T18:51:43.421Z,22.30
2018-06-27T18:56:46.504Z,22.10
2018-06-27T19:01:49.618Z,22.00
2018-06-27T19:06:52.944Z,21.90
2018-06-27T19:11:56.008Z,21.80
2018-06-27T19:16:59.292Z,21.60
2018-06-27T19:22:03.213Z,21.50
2018-06-27T19:27:06.252Z,21.20
2018-06-27T19:32:09.321Z,21.10
2018-06-27T19:37:12.408Z,20.90
2018-06-27T19:42:15.485Z,20.70
2018-06-27T19:47:18.588Z,20.50
2018-06-27T19:52:21.706Z,20.30
2018-06-27T19:57:24.817Z,20.20
2018-06-27T20:02:28.002Z,20.40
2018-06-27T20:07:31.036Z,20.40
2018-06-27T20:12:34.268Z,20.30
2018-06-27T20:17:37.345Z,20.30
2018-06-27T20:22:40.365Z,20.30
2018-06-27T20:27:43.400Z,20.20
2018-06-27T20:32:46.451Z,20.10
2018-06-27T20:37:50.848Z,20.10
2018-06-27T20:42:53.871Z,20.00
2018-06-27T20:47:56.936Z,19.90
2018-06-27T20:53:00.007Z,19.90
2018-06-27T20:58:03.080Z,19.80
2018-06-27T21:03:06.232Z,19.70
2018-06-27T21:08:09.454Z,19.60
2018-06-27T21:13:12.667Z,19.60
2018-06-27T21:23:18.600Z,19.40
2018-06-27T21:28:21.665Z,19.30
2018-06-27T21:33:24.744Z,19.20
2018-06-27T21:38:27.773Z,19.10
2018-06-27T21:43:35.868Z,19.10
2018-06-27T21:48:38.884Z,19.00
2018-06-27T21:53:42.132Z,19.00
2018-06-27T21:58:45.185Z,18.90
2018-06-27T22:03:48.223Z,18.90
2018-06-27T22:08:51.269Z,18.80
2018-06-27T22:13:54.473Z,18.80
2018-06-27T22:18:57.520Z,18.80
2018-06-27T22:24:00.815Z,18.80
2018-06-27T22:29:03.902Z,18.80
2018-06-27T22:34:06.984Z,18.70
2018-06-27T22:39:11.270Z,18.70
2018-06-27T22:44:14.322Z,18.70
2018-06-27T22:49:17.406Z,18.60
2018-06-27T22:54:20.620Z,18.60
2018-06-27T22:59:23.781Z,18.50
2018-06-27T23:04:26.967Z,18.50
2018-06-27T23:09:30.036Z,18.50
2018-06-27T23:14:33.068Z,18.40
2018-06-27T23:19:36.132Z,18.30
2018-06-27T23:24:39.205Z,18.30
2018-06-27T23:29:42.257Z,18.20
2018-06-27T23:34:45.458Z,18.10
2018-06-27T23:39:48.650Z,18.10
2018-06-27T23:44:51.807Z,18.00
2018-06-27T23:49:54.868Z,17.90
2018-06-27T23:54:58.515Z,17.90
